Airfield :
LOGIN :

Register | Disclaimer

   EN    FR    IT 

 










Legend :    VFR   Marginal VFR   IFR   Intensive IFR   Very Intensive IFR
Visi :
Ceiling :
>= 8 km
>= 3000ft
5 to 8 km
1000 to 3000 ft
1500m to 5 km
500 to 1000 ft
800 to 1500m
200 to 500 ft
< 800m
< 200 ft
Symbols :   Thunderstorms  Fog  Heavy snow  Heavy precipitations  Wind > 20 kt
SIGMETs :     Misc.  Thunderstorms  Icing  Turbulence  Mountain Waves  Volcanic Ashes







- Airport Elevation : 2595 ft
- IATA code : SLM


LESA - Salamanca Matacan

CURRENT METAR :
  • 210200Z AUTO 24011KT 8000 BKN046 07/04 Q1005

EXPIRED METARs :
  • 210130Z AUTO 24013KT 8000 FEW024/// 07/05 Q1005
  • 210100Z AUTO 22009KT 8000 FEW022/// 07/06 Q1005
  • 210030Z AUTO 23011KT 7000 -RA BKN023/// BKN035/// 07/06 Q1005
  • 210000Z AUTO 22010KT 7000 -RA BKN029/// BKN037/// 07/06 Q1005
  • 202330Z AUTO 23010KT 7000 FEW019/// OVC030/// 07/06 Q1005

TAF TAF LESA
Valid from the 21 at 00:00 until the 22 at 00:00 UTC


202300Z 2100/2124 23011KT 9999 SCT020 BKN045 TX10/2115Z TN03/2106Z
PROB40
TEMPO 2100/2115 4000 RA BKN020
PROB30
TEMPO 2100/2111 2500 BR BKN005
PROB30
TEMPO 2111/2117 23015G25KT
PROB30
TEMPO 2115/2118 4900 DZ
No reported NOTAMs for that airfield.



MET'MAP, your aeronautical weather chart ! - Copyright ORBIFLY December 2007 - Disclaimer

ORBIFLY MET'MAP TEAM :

Programming & Development : Alexandra Zaïnal
Concept & Development : Baudouin d'Aumeries
Co-Development & Prog : Marc-Olivier Méhu
Technical & hardware support : Manuel Goepfert

Contact : metmap@orbifly.com




SOURCES & CREDITS :

   NOAA